17:23
Airports
History
Links
Donate
Help keep this website running!
PayPal
Bitcoin
This page is community maintained. The information is intended for PC simulator navigation or reference.
Always use approved charts for navigation.
LIDW
Salgareda Aviosuperficie Carrer
Salgareda Aviosuperficie Carrer (LIDW)
Salgareda, Veneto, Italy (31040)
4
Lat/Lng:45° 42' 12" N / 12° 32' 11" E
45.703333 / 12.536389
Elevation:17'ft / 5mMSL
ID / ICAO:LIDW
Runways:1
Longest:15-33
Grass 692m / 2,270ft
Nearby Weather16:50 GMT 2017-11-20
Nearby weather at LIPZ, Venezia Tessera located 16.4 nautical miles from LIDW
Altimeter: 30.09
Visibility: 5.6 statute miles
Wind: 2 knots (from 070°)
Temp: 8°c / 46°f
Humidity: 81.3%

METAR: LIPZ 201650Z 07002KT 9000 NSC 08/05 Q1019 NOSIG

(Powered by phpweather)
Nearby VORs <50NM
Nearby NDBs
Runway 15 / 33
Dimensions:692 x 50m 2270' x 164'ft
Surface:Grass
Runway 15 [A]Runway 33 [B]
Heading:149°TH 329°TH
Lat:
Lng:
45° 42' 21.82"N
12° 32' 2.88"E
45° 42' 2.18"N
12° 32' 19.12"E
User Notes and Comments
45° 42' 12" N / 12° 32' 11" E
Distance To
Airport ID:
Nearby Airports
(C) Venezia Tessera 16.4 NM
LIPZ ( WX ) SSW 213°
(C) TREVISO 17.0 NM
LIPH ( WX ) WSW 257°
4 Venezia San Nicolo 20.3 NM
LIPV SSW 200°
(C) Istrana 21.7 NM
LIPS ( WX ) W 266°
(U) Casarsa 22.0 NM
LIDK NE 38°
(C) AVIANO AB 22.8 NM
LIPA ( WX ) N
4 Fraforeano Ronchis 24.8 NM
LIDJ ENE 68°
VFR Chart
Flight Planning at SkyVector.com